sensor_id;sensor_type;location;lat;lon;timestamp;pressure;altitude;pressure_sealevel;temperature;humidity
59435;BME280;45241;49.768;8.636;2023-02-12T00:01:57;102285.38;;;7.85;88.66
59435;BME280;45241;49.768;8.636;2023-02-12T00:04:23;102290.00;;;7.94;88.23
59435;BME280;45241;49.768;8.636;2023-02-12T00:06:48;102293.63;;;8.04;87.17
59435;BME280;45241;49.768;8.636;2023-02-12T00:09:13;102298.25;;;8.02;87.14
59435;BME280;45241;49.768;8.636;2023-02-12T00:11:39;102298.47;;;7.99;87.28
59435;BME280;45241;49.768;8.636;2023-02-12T00:14:04;102296.28;;;8.04;88.11
59435;BME280;45241;49.768;8.636;2023-02-12T00:16:29;102299.94;;;8.03;88.05
59435;BME280;45241;49.768;8.636;2023-02-12T00:18:56;102293.31;;;7.75;88.96
59435;BME280;45241;49.768;8.636;2023-02-12T00:21:22;102299.50;;;7.65;90.89
59435;BME280;45241;49.768;8.636;2023-02-12T00:23:48;102294.75;;;7.57;91.17
59435;BME280;45241;49.768;8.636;2023-02-12T00:26:15;102298.88;;;7.39;93.56
59435;BME280;45241;49.768;8.636;2023-02-12T00:28:41;102306.28;;;7.69;91.25
59435;BME280;45241;49.768;8.636;2023-02-12T00:31:08;102301.19;;;7.88;89.62
59435;BME280;45241;49.768;8.636;2023-02-12T00:33:34;102296.69;;;7.88;88.89
59435;BME280;45241;49.768;8.636;2023-02-12T00:35:59;102303.38;;;7.49;92.17
59435;BME280;45241;49.768;8.636;2023-02-12T00:38:24;102293.53;;;7.83;89.90
59435;BME280;45241;49.768;8.636;2023-02-12T00:40:50;102305.41;;;7.90;88.42
59435;BME280;45241;49.768;8.636;2023-02-12T00:43:15;102302.03;;;7.88;88.42
59435;BME280;45241;49.768;8.636;2023-02-12T00:45:41;102298.66;;;7.75;89.47
59435;BME280;45241;49.768;8.636;2023-02-12T00:48:06;102289.28;;;7.81;90.06
59435;BME280;45241;49.768;8.636;2023-02-12T00:50:31;102294.88;;;7.78;90.21
59435;BME280;45241;49.768;8.636;2023-02-12T00:52:57;102291.84;;;7.71;90.10
59435;BME280;45241;49.768;8.636;2023-02-12T00:55:22;102292.22;;;7.78;90.01
59435;BME280;45241;49.768;8.636;2023-02-12T00:57:47;102302.03;;;7.88;89.36
59435;BME280;45241;49.768;8.636;2023-02-12T01:00:13;102303.59;;;7.91;88.89
59435;BME280;45241;49.768;8.636;2023-02-12T01:02:39;102310.41;;;7.73;89.62
59435;BME280;45241;49.768;8.636;2023-02-12T01:05:04;102312.84;;;7.76;89.64
59435;BME280;45241;49.768;8.636;2023-02-12T01:07:30;102301.78;;;7.47;91.52
59435;BME280;45241;49.768;8.636;2023-02-12T01:09:55;102308.22;;;7.44;93.06
59435;BME280;45241;49.768;8.636;2023-02-12T01:12:20;102312.34;;;7.59;91.54
59435;BME280;45241;49.768;8.636;2023-02-12T01:14:45;102307.00;;;7.71;90.64
59435;BME280;45241;49.768;8.636;2023-02-12T01:17:11;102304.56;;;7.79;90.37
59435;BME280;45241;49.768;8.636;2023-02-12T01:19:36;102304.59;;;7.68;90.21
59435;BME280;45241;49.768;8.636;2023-02-12T01:22:01;102300.81;;;7.48;92.90
59435;BME280;45241;49.768;8.636;2023-02-12T01:24:27;102304.34;;;7.71;91.21
59435;BME280;45241;49.768;8.636;2023-02-12T01:26:52;102296.78;;;7.87;90.33
59435;BME280;45241;49.768;8.636;2023-02-12T01:29:17;102300.22;;;7.89;89.48
59435;BME280;45241;49.768;8.636;2023-02-12T01:31:43;102287.19;;;7.84;89.75
59435;BME280;45241;49.768;8.636;2023-02-12T01:34:09;102302.16;;;7.76;90.35
59435;BME280;45241;49.768;8.636;2023-02-12T01:36:35;102302.88;;;7.55;92.18
59435;BME280;45241;49.768;8.636;2023-02-12T01:39:00;102308.22;;;7.67;91.42
59435;BME280;45241;49.768;8.636;2023-02-12T01:41:33;102299.25;;;7.68;91.43
59435;BME280;45241;49.768;8.636;2023-02-12T01:44:13;102299.56;;;7.18;93.51
59435;BME280;45241;49.768;8.636;2023-02-12T01:46:40;102297.41;;;7.57;91.52
59435;BME280;45241;49.768;8.636;2023-02-12T01:49:11;102303.25;;;7.62;90.77
59435;BME280;45241;49.768;8.636;2023-02-12T01:51:38;102293.91;;;7.45;92.15
59435;BME280;45241;49.768;8.636;2023-02-12T01:54:06;102295.72;;;7.34;93.42
59435;BME280;45241;49.768;8.636;2023-02-12T01:56:33;102294.41;;;7.50;93.03
59435;BME280;45241;49.768;8.636;2023-02-12T01:58:58;102293.91;;;7.68;91.40
59435;BME280;45241;49.768;8.636;2023-02-12T02:01:26;102289.88;;;7.73;91.00
59435;BME280;45241;49.768;8.636;2023-02-12T02:04:06;102291.09;;;7.80;89.95
59435;BME280;45241;49.768;8.636;2023-02-12T02:06:35;102284.91;;;7.80;89.99
59435;BME280;45241;49.768;8.636;2023-02-12T02:09:03;102286.84;;;7.89;89.24
59435;BME280;45241;49.768;8.636;2023-02-12T02:11:28;102290.59;;;7.86;89.39
59435;BME280;45241;49.768;8.636;2023-02-12T02:14:12;102291.22;;;7.90;89.56
59435;BME280;45241;49.768;8.636;2023-02-12T02:28:10;102289.53;;;7.44;94.27
59435;BME280;45241;49.768;8.636;2023-02-12T02:30:54;102293.31;;;7.64;92.56
59435;BME280;45241;49.768;8.636;2023-02-12T02:36:17;102285.88;;;7.90;90.29
59435;BME280;45241;49.768;8.636;2023-02-12T02:38:54;102287.59;;;7.80;90.28
59435;BME280;45241;49.768;8.636;2023-02-12T02:41:39;102283.22;;;7.68;91.10
59435;BME280;45241;49.768;8.636;2023-02-12T02:44:13;102290.13;;;7.59;92.65
59435;BME280;45241;49.768;8.636;2023-02-12T02:46:44;102291.09;;;7.69;91.57
59435;BME280;45241;49.768;8.636;2023-02-12T02:49:49;102298.78;;;7.63;91.93
59435;BME280;45241;49.768;8.636;2023-02-12T02:52:23;102294.88;;;7.55;92.72
59435;BME280;45241;49.768;8.636;2023-02-12T02:54:55;102284.31;;;7.65;91.86
59435;BME280;45241;49.768;8.636;2023-02-12T02:57:31;102287.59;;;7.46;93.17
59435;BME280;45241;49.768;8.636;2023-02-12T03:00:10;102284.66;;;7.05;97.57
59435;BME280;45241;49.768;8.636;2023-02-12T03:02:40;102289.31;;;7.36;95.46
59435;BME280;45241;49.768;8.636;2023-02-12T03:05:13;102292.09;;;7.57;93.83
59435;BME280;45241;49.768;8.636;2023-02-12T03:07:53;102293.66;;;7.71;92.86
59435;BME280;45241;49.768;8.636;2023-02-12T03:10:24;102298.78;;;7.63;94.26
59435;BME280;45241;49.768;8.636;2023-02-12T03:13:01;102286.59;;;7.81;92.08
59435;BME280;45241;49.768;8.636;2023-02-12T03:15:36;102287.59;;;7.69;91.81
59435;BME280;45241;49.768;8.636;2023-02-12T03:18:07;102286.38;;;7.73;91.73
59435;BME280;45241;49.768;8.636;2023-02-12T03:20:42;102289.88;;;7.84;90.65
59435;BME280;45241;49.768;8.636;2023-02-12T03:23:12;102285.38;;;7.85;90.79
59435;BME280;45241;49.768;8.636;2023-02-12T03:26:04;102289.03;;;7.73;91.24
59435;BME280;45241;49.768;8.636;2023-02-12T03:28:31;102283.94;;;7.70;91.88
59435;BME280;45241;49.768;8.636;2023-02-12T03:33:43;102292.09;;;7.68;92.46
59435;BME280;45241;49.768;8.636;2023-02-12T03:38:51;102300.94;;;7.57;92.64
59435;BME280;45241;49.768;8.636;2023-02-12T03:41:28;102290.38;;;7.56;93.39
59435;BME280;45241;49.768;8.636;2023-02-12T03:44:06;102289.06;;;7.62;93.34
59435;BME280;45241;49.768;8.636;2023-02-12T03:46:40;102284.44;;;7.64;92.52
59435;BME280;45241;49.768;8.636;2023-02-12T03:49:21;102294.16;;;7.65;92.96
59435;BME280;45241;49.768;8.636;2023-02-12T03:51:47;102289.53;;;7.78;92.13
59435;BME280;45241;49.768;8.636;2023-02-12T03:54:16;102288.06;;;7.85;91.43
59435;BME280;45241;49.768;8.636;2023-02-12T03:56:52;102290.13;;;7.70;92.17
59435;BME280;45241;49.768;8.636;2023-02-12T03:59:21;102285.78;;;7.69;92.73
59435;BME280;45241;49.768;8.636;2023-02-12T04:01:49;102291.34;;;7.77;92.44
59435;BME280;45241;49.768;8.636;2023-02-12T04:04:16;102297.03;;;7.73;93.76
59435;BME280;45241;49.768;8.636;2023-02-12T04:06:42;102291.09;;;7.69;95.10
59435;BME280;45241;49.768;8.636;2023-02-12T04:09:10;102291.56;;;7.85;94.45
59435;BME280;45241;49.768;8.636;2023-02-12T04:14:24;102297.28;;;7.81;93.33
59435;BME280;45241;49.768;8.636;2023-02-12T04:16:59;102303.84;;;7.88;92.30
59435;BME280;45241;49.768;8.636;2023-02-12T04:25:09;102302.13;;;7.98;91.63
59435;BME280;45241;49.768;8.636;2023-02-12T04:27:47;102312.06;;;7.96;92.55
59435;BME280;45241;49.768;8.636;2023-02-12T04:30:27;102315.47;;;7.98;91.76
59435;BME280;45241;49.768;8.636;2023-02-12T04:32:59;102309.41;;;7.85;94.22
59435;BME280;45241;49.768;8.636;2023-02-12T04:36:02;102311.88;;;7.88;93.97
59435;BME280;45241;49.768;8.636;2023-02-12T04:38:37;102312.31;;;7.93;94.15
59435;BME280;45241;49.768;8.636;2023-02-12T04:41:06;102321.66;;;7.99;92.17
59435;BME280;45241;49.768;8.636;2023-02-12T04:43:34;102317.41;;;7.85;92.93
59435;BME280;45241;49.768;8.636;2023-02-12T04:46:01;102325.69;;;7.82;92.95
59435;BME280;45241;49.768;8.636;2023-02-12T04:48:26;102325.59;;;7.61;94.86
59435;BME280;45241;49.768;8.636;2023-02-12T04:50:51;102324.97;;;7.57;95.75
59435;BME280;45241;49.768;8.636;2023-02-12T04:53:17;102328.25;;;7.50;96.42
59435;BME280;45241;49.768;8.636;2023-02-12T04:55:42;102331.53;;;7.76;94.63
59435;BME280;45241;49.768;8.636;2023-02-12T04:58:08;102331.16;;;7.80;93.78
59435;BME280;45241;49.768;8.636;2023-02-12T05:00:34;102325.31;;;7.86;93.14
59435;BME280;45241;49.768;8.636;2023-02-12T05:02:59;102316.84;;;7.81;93.14
59435;BME280;45241;49.768;8.636;2023-02-12T05:05:24;102320.81;;;7.87;92.38
59435;BME280;45241;49.768;8.636;2023-02-12T05:07:50;102314.16;;;7.93;91.93
59435;BME280;45241;49.768;8.636;2023-02-12T05:10:15;102318.28;;;7.85;92.46
59435;BME280;45241;49.768;8.636;2023-02-12T05:12:41;102316.59;;;7.73;93.10
59435;BME280;45241;49.768;8.636;2023-02-12T05:15:06;102310.13;;;7.87;92.77
59435;BME280;45241;49.768;8.636;2023-02-12T05:17:32;102312.47;;;7.80;92.56
59435;BME280;45241;49.768;8.636;2023-02-12T05:19:57;102310.66;;;7.70;93.39
59435;BME280;45241;49.768;8.636;2023-02-12T05:22:23;102310.78;;;7.57;95.21
59435;BME280;45241;49.768;8.636;2023-02-12T05:24:48;102310.53;;;7.71;93.54
59435;BME280;45241;49.768;8.636;2023-02-12T05:27:14;102310.31;;;7.63;93.55
59435;BME280;45241;49.768;8.636;2023-02-12T05:29:39;102320.59;;;7.68;93.60
59435;BME280;45241;49.768;8.636;2023-02-12T05:32:05;102313.50;;;7.22;98.31
59435;BME280;45241;49.768;8.636;2023-02-12T05:34:31;102315.84;;;7.26;98.63
59435;BME280;45241;49.768;8.636;2023-02-12T05:36:56;102316.81;;;7.48;95.93
59435;BME280;45241;49.768;8.636;2023-02-12T05:39:22;102316.34;;;7.65;94.53
59435;BME280;45241;49.768;8.636;2023-02-12T05:41:47;102315.25;;;7.56;95.24
59435;BME280;45241;49.768;8.636;2023-02-12T05:44:13;102307.88;;;7.38;96.91
59435;BME280;45241;49.768;8.636;2023-02-12T05:46:40;102312.97;;;7.63;94.93
59435;BME280;45241;49.768;8.636;2023-02-12T05:49:05;102313.69;;;7.65;93.87
59435;BME280;45241;49.768;8.636;2023-02-12T05:51:32;102308.47;;;7.64;93.19
59435;BME280;45241;49.768;8.636;2023-02-12T05:53:59;102314.53;;;7.66;93.03
59435;BME280;45241;49.768;8.636;2023-02-12T05:56:30;102309.66;;;7.71;92.49
59435;BME280;45241;49.768;8.636;2023-02-12T05:59:02;102317.69;;;7.59;92.86
59435;BME280;45241;49.768;8.636;2023-02-12T06:03:55;102309.44;;;7.63;93.03
59435;BME280;45241;49.768;8.636;2023-02-12T06:06:20;102315.50;;;7.53;93.88
59435;BME280;45241;49.768;8.636;2023-02-12T06:08:48;102321.31;;;7.58;92.91
59435;BME280;45241;49.768;8.636;2023-02-12T06:11:15;102321.56;;;7.55;93.24
59435;BME280;45241;49.768;8.636;2023-02-12T06:13:41;102319.16;;;7.64;92.88
59435;BME280;45241;49.768;8.636;2023-02-12T06:16:24;102323.00;;;7.59;93.00
59435;BME280;45241;49.768;8.636;2023-02-12T06:18:51;102312.47;;;7.58;92.77
59435;BME280;45241;49.768;8.636;2023-02-12T06:21:17;102315.84;;;7.26;94.92
59435;BME280;45241;49.768;8.636;2023-02-12T06:23:43;102315.59;;;7.29;95.92
59435;BME280;45241;49.768;8.636;2023-02-12T06:26:08;102311.84;;;7.43;94.98
59435;BME280;45241;49.768;8.636;2023-02-12T06:28:34;102305.22;;;7.49;93.86
59435;BME280;45241;49.768;8.636;2023-02-12T06:30:59;102310.91;;;7.55;94.87
59435;BME280;45241;49.768;8.636;2023-02-12T06:33:24;102313.94;;;7.62;93.72
59435;BME280;45241;49.768;8.636;2023-02-12T06:35:50;102317.19;;;7.54;94.63
59435;BME280;45241;49.768;8.636;2023-02-12T06:38:15;102323.50;;;7.53;94.78
59435;BME280;45241;49.768;8.636;2023-02-12T06:40:40;102326.78;;;7.57;96.83
59435;BME280;45241;49.768;8.636;2023-02-12T06:43:06;102327.88;;;7.66;94.92
59435;BME280;45241;49.768;8.636;2023-02-12T06:45:32;102324.81;;;7.25;97.06
59435;BME280;45241;49.768;8.636;2023-02-12T06:47:57;102334.44;;;7.39;97.67
59435;BME280;45241;49.768;8.636;2023-02-12T06:50:23;102329.31;;;7.58;96.11
59435;BME280;45241;49.768;8.636;2023-02-12T06:52:48;102330.81;;;7.63;94.95
59435;BME280;45241;49.768;8.636;2023-02-12T06:55:14;102346.94;;;7.61;95.24
59435;BME280;45241;49.768;8.636;2023-02-12T06:57:40;102350.91;;;7.44;97.43
59435;BME280;45241;49.768;8.636;2023-02-12T07:00:06;102349.00;;;7.69;95.74
59435;BME280;45241;49.768;8.636;2023-02-12T07:02:31;102362.94;;;7.50;96.90
59435;BME280;45241;49.768;8.636;2023-02-12T07:04:57;102362.25;;;7.13;98.49
59435;BME280;45241;49.768;8.636;2023-02-12T07:07:22;102362.53;;;7.32;99.21
59435;BME280;45241;49.768;8.636;2023-02-12T07:09:47;102358.03;;;7.32;98.72
59435;BME280;45241;49.768;8.636;2023-02-12T07:12:13;102363.28;;;7.45;97.00
59435;BME280;45241;49.768;8.636;2023-02-12T07:14:38;102359.38;;;7.27;100.00
59435;BME280;45241;49.768;8.636;2023-02-12T07:17:03;102355.22;;;7.12;100.00
59435;BME280;45241;49.768;8.636;2023-02-12T07:19:29;102362.34;;;7.57;98.60
59435;BME280;45241;49.768;8.636;2023-02-12T07:21:55;102367.81;;;7.67;97.10
59435;BME280;45241;49.768;8.636;2023-02-12T07:24:20;102366.84;;;7.68;96.85
59435;BME280;45241;49.768;8.636;2023-02-12T07:26:46;102362.59;;;7.77;95.95
59435;BME280;45241;49.768;8.636;2023-02-12T07:29:11;102364.41;;;7.65;97.78
59435;BME280;45241;49.768;8.636;2023-02-12T07:31:37;102360.16;;;7.85;95.70
59435;BME280;45241;49.768;8.636;2023-02-12T07:34:02;102366.25;;;7.76;96.43
59435;BME280;45241;49.768;8.636;2023-02-12T07:36:31;102368.75;;;7.55;97.91
59435;BME280;45241;49.768;8.636;2023-02-12T07:38:57;102368.41;;;7.82;96.03
59435;BME280;45241;49.768;8.636;2023-02-12T07:41:28;102367.16;;;7.41;99.48
59435;BME280;45241;49.768;8.636;2023-02-12T07:44:02;102367.66;;;7.57;100.00
59435;BME280;45241;49.768;8.636;2023-02-12T07:46:30;102369.84;;;7.52;99.90
59435;BME280;45241;49.768;8.636;2023-02-12T07:48:58;102365.72;;;7.37;100.00
59435;BME280;45241;49.768;8.636;2023-02-12T07:51:23;102374.72;;;7.81;98.72
59435;BME280;45241;49.768;8.636;2023-02-12T07:53:49;102371.06;;;7.71;99.98
59435;BME280;45241;49.768;8.636;2023-02-12T07:56:21;102375.94;;;7.88;100.00
59435;BME280;45241;49.768;8.636;2023-02-12T07:58:48;102383.84;;;7.89;99.31
59435;BME280;45241;49.768;8.636;2023-02-12T08:01:20;102377.16;;;7.95;98.80
59435;BME280;45241;49.768;8.636;2023-02-12T08:03:46;102376.03;;;8.09;97.61
59435;BME280;45241;49.768;8.636;2023-02-12T08:06:24;102386.75;;;7.75;100.00
59435;BME280;45241;49.768;8.636;2023-02-12T08:08:51;102379.81;;;8.06;98.47
59435;BME280;45241;49.768;8.636;2023-02-12T08:11:16;102382.84;;;7.68;100.00
59435;BME280;45241;49.768;8.636;2023-02-12T08:13:43;102388.44;;;8.10;98.88
59435;BME280;45241;49.768;8.636;2023-02-12T08:16:19;102386.97;;;7.83;100.00
59435;BME280;45241;49.768;8.636;2023-02-12T08:18:45;102390.50;;;8.17;99.12
59435;BME280;45241;49.768;8.636;2023-02-12T08:21:13;102387.34;;;7.68;100.00
59435;BME280;45241;49.768;8.636;2023-02-12T08:23:40;102390.75;;;8.03;100.00
59435;BME280;45241;49.768;8.636;2023-02-12T08:26:17;102384.53;;;7.69;100.00
59435;BME280;45241;49.768;8.636;2023-02-12T08:28:49;102393.38;;;7.58;100.00
59435;BME280;45241;49.768;8.636;2023-02-12T08:31:23;102387.84;;;7.62;100.00
59435;BME280;45241;49.768;8.636;2023-02-12T08:33:51;102396.81;;;8.05;100.00
59435;BME280;45241;49.768;8.636;2023-02-12T08:36:18;102390.75;;;8.03;100.00
59435;BME280;45241;49.768;8.636;2023-02-12T08:38:45;102392.19;;;7.85;100.00
59435;BME280;45241;49.768;8.636;2023-02-12T08:41:13;102393.28;;;8.27;100.00
59435;BME280;45241;49.768;8.636;2023-02-12T08:43:40;102393.88;;;7.86;100.00
59435;BME280;45241;49.768;8.636;2023-02-12T08:46:11;102401.19;;;7.84;100.00
59435;BME280;45241;49.768;8.636;2023-02-12T08:48:38;102402.53;;;7.89;100.00
59435;BME280;45241;49.768;8.636;2023-02-12T08:51:08;102410.16;;;8.05;100.00
59435;BME280;45241;49.768;8.636;2023-02-12T08:53:35;102404.31;;;8.11;100.00
59435;BME280;45241;49.768;8.636;2023-02-12T08:56:01;102414.16;;;8.11;100.00
59435;BME280;45241;49.768;8.636;2023-02-12T08:58:27;102409.91;;;8.08;100.00
59435;BME280;45241;49.768;8.636;2023-02-12T09:00:52;102403.84;;;8.40;100.00
59435;BME280;45241;49.768;8.636;2023-02-12T09:03:18;102404.13;;;8.69;100.00
59435;BME280;45241;49.768;8.636;2023-02-12T09:05:43;102409.16;;;8.83;100.00
59435;BME280;45241;49.768;8.636;2023-02-12T09:08:08;102411.13;;;8.81;100.00
59435;BME280;45241;49.768;8.636;2023-02-12T09:10:38;102414.16;;;8.76;100.00
59435;BME280;45241;49.768;8.636;2023-02-12T09:13:03;102413.19;;;8.77;100.00
59435;BME280;45241;49.768;8.636;2023-02-12T09:15:30;102415.16;;;8.75;100.00
59435;BME280;45241;49.768;8.636;2023-02-12T09:17:56;102419.63;;;8.75;100.00
59435;BME280;45241;49.768;8.636;2023-02-12T09:20:21;102416.72;;;8.78;100.00
59435;BME280;45241;49.768;8.636;2023-02-12T09:22:47;102413.47;;;9.06;100.00
59435;BME280;45241;49.768;8.636;2023-02-12T09:25:12;102414.53;;;9.04;100.00
59435;BME280;45241;49.768;8.636;2023-02-12T09:27:37;102413.25;;;8.66;100.00
59435;BME280;45241;49.768;8.636;2023-02-12T09:30:03;102420.50;;;9.07;100.00
59435;BME280;45241;49.768;8.636;2023-02-12T09:32:28;102415.75;;;9.11;100.00
59435;BME280;45241;49.768;8.636;2023-02-12T09:34:54;102416.19;;;9.16;100.00
59435;BME280;45241;49.768;8.636;2023-02-12T09:37:19;102414.06;;;9.31;100.00
59435;BME280;45241;49.768;8.636;2023-02-12T09:39:44;102413.47;;;9.27;100.00
59435;BME280;45241;49.768;8.636;2023-02-12T09:42:28;102426.06;;;9.36;100.00
59435;BME280;45241;49.768;8.636;2023-02-12T09:45:06;102423.94;;;9.30;100.00
59435;BME280;45241;49.768;8.636;2023-02-12T09:50:16;102427.50;;;9.41;99.65
59435;BME280;45241;49.768;8.636;2023-02-12T09:52:47;102427.50;;;9.41;99.77
59435;BME280;45241;49.768;8.636;2023-02-12T09:55:15;102426.63;;;9.30;100.00
59435;BME280;45241;49.768;8.636;2023-02-12T09:57:42;102427.47;;;9.31;100.00
59435;BME280;45241;49.768;8.636;2023-02-12T10:00:18;102424.38;;;9.35;100.00
59435;BME280;45241;49.768;8.636;2023-02-12T10:02:49;102432.84;;;9.41;100.00
59435;BME280;45241;49.768;8.636;2023-02-12T10:05:24;102420.97;;;9.45;99.70
59435;BME280;45241;49.768;8.636;2023-02-12T10:08:19;102422.97;;;9.52;99.74
59435;BME280;45241;49.768;8.636;2023-02-12T10:10:52;102421.13;;;9.53;99.70
59435;BME280;45241;49.768;8.636;2023-02-12T10:13:30;102421.13;;;9.53;99.46
59435;BME280;45241;49.768;8.636;2023-02-12T10:18:57;102419.44;;;9.73;97.83
59435;BME280;45241;49.768;8.636;2023-02-12T10:21:45;102420.44;;;9.72;97.07
59435;BME280;45241;49.768;8.636;2023-02-12T10:24:39;102419.25;;;9.95;97.06
59435;BME280;45241;49.768;8.636;2023-02-12T10:27:13;102418.19;;;9.77;97.52
59435;BME280;45241;49.768;8.636;2023-02-12T10:29:40;102421.63;;;9.88;96.46
59435;BME280;45241;49.768;8.636;2023-02-12T10:32:23;102418.03;;;9.78;97.40
59435;BME280;45241;49.768;8.636;2023-02-12T10:34:50;102424.09;;;9.71;99.07
59435;BME280;45241;49.768;8.636;2023-02-12T10:37:34;102411.34;;;9.93;96.78
59435;BME280;45241;49.768;8.636;2023-02-12T10:40:27;102413.38;;;10.01;95.89
59435;BME280;45241;49.768;8.636;2023-02-12T10:42:55;102413.94;;;10.05;96.35
59435;BME280;45241;49.768;8.636;2023-02-12T10:45:35;102413.56;;;10.09;97.15
59435;BME280;45241;49.768;8.636;2023-02-12T10:48:20;102408.22;;;10.19;95.55
59435;BME280;45241;49.768;8.636;2023-02-12T10:53:36;102403.72;;;10.29;94.39
59435;BME280;45241;49.768;8.636;2023-02-12T11:01:34;102391.34;;;10.38;93.63
59435;BME280;45241;49.768;8.636;2023-02-12T11:04:20;102393.66;;;10.62;93.90
59435;BME280;45241;49.768;8.636;2023-02-12T11:06:58;102390.38;;;10.58;93.72
59435;BME280;45241;49.768;8.636;2023-02-12T11:09:44;102397.31;;;10.70;93.64
59435;BME280;45241;49.768;8.636;2023-02-12T11:12:19;102385.59;;;10.71;93.21
59435;BME280;45241;49.768;8.636;2023-02-12T11:14:50;102379.53;;;10.79;92.24
59435;BME280;45241;49.768;8.636;2023-02-12T11:17:25;102372.47;;;10.97;91.28
59435;BME280;45241;49.768;8.636;2023-02-12T11:20:02;102368.94;;;10.97;91.54
59435;BME280;45241;49.768;8.636;2023-02-12T11:22:28;102364.13;;;11.20;89.57
59435;BME280;45241;49.768;8.636;2023-02-12T11:25:13;102361.84;;;11.25;88.99
59435;BME280;45241;49.768;8.636;2023-02-12T11:27:40;102358.19;;;11.26;88.66
59435;BME280;45241;49.768;8.636;2023-02-12T11:32:34;102356.78;;;11.31;88.06
59435;BME280;45241;49.768;8.636;2023-02-12T11:37:49;102343.09;;;10.96;89.69
59435;BME280;45241;49.768;8.636;2023-02-12T11:40:18;102347.19;;;11.09;88.59
59435;BME280;45241;49.768;8.636;2023-02-12T11:42:48;102340.28;;;10.78;90.15
59435;BME280;45241;49.768;8.636;2023-02-12T11:45:17;102336.78;;;10.87;89.47
59435;BME280;45241;49.768;8.636;2023-02-12T11:47:44;102332.50;;;10.84;89.85
59435;BME280;45241;49.768;8.636;2023-02-12T11:50:24;102335.47;;;11.01;88.26
59435;BME280;45241;49.768;8.636;2023-02-12T11:52:53;102337.59;;;10.97;88.74
59435;BME280;45241;49.768;8.636;2023-02-12T11:58:38;102327.97;;;11.04;87.20
59435;BME280;45241;49.768;8.636;2023-02-12T12:01:15;102326.00;;;11.16;86.31
59435;BME280;45241;49.768;8.636;2023-02-12T12:03:48;102321.03;;;11.11;85.78
59435;BME280;45241;49.768;8.636;2023-02-12T12:06:28;102320.03;;;11.41;85.65
59435;BME280;45241;49.768;8.636;2023-02-12T12:11:40;102315.81;;;11.20;86.75
59435;BME280;45241;49.768;8.636;2023-02-12T12:14:16;102320.75;;;11.34;86.27
59435;BME280;45241;49.768;8.636;2023-02-12T12:16:50;102325.66;;;11.38;85.88
59435;BME280;45241;49.768;8.636;2023-02-12T12:20:16;102315.78;;;11.29;85.61
59435;BME280;45241;49.768;8.636;2023-02-12T12:22:56;102317.59;;;11.38;84.24
59435;BME280;45241;49.768;8.636;2023-02-12T12:25:28;102318.22;;;11.32;84.72
59435;BME280;45241;49.768;8.636;2023-02-12T12:33:21;102310.53;;;11.47;83.21
59435;BME280;45241;49.768;8.636;2023-02-12T12:38:31;102311.91;;;11.51;83.52
59435;BME280;45241;49.768;8.636;2023-02-12T12:41:12;102313.34;;;11.46;84.09
59435;BME280;45241;49.768;8.636;2023-02-12T12:44:04;102301.09;;;11.70;82.25
59435;BME280;45241;49.768;8.636;2023-02-12T12:46:47;102298.81;;;11.76;82.80
59435;BME280;45241;49.768;8.636;2023-02-12T12:49:42;102298.25;;;11.44;82.80
59435;BME280;45241;49.768;8.636;2023-02-12T12:52:37;102288.06;;;11.76;82.57
59435;BME280;45241;49.768;8.636;2023-02-12T13:01:01;102285.59;;;11.92;80.89
59435;BME280;45241;49.768;8.636;2023-02-12T13:11:46;102276.00;;;12.07;81.15
59435;BME280;45241;49.768;8.636;2023-02-12T13:17:23;102266.78;;;11.92;81.76
59435;BME280;45241;49.768;8.636;2023-02-12T13:20:36;102263.19;;;12.54;79.87
59435;BME280;45241;49.768;8.636;2023-02-12T13:23:03;102258.97;;;12.52;79.21
59435;BME280;45241;49.768;8.636;2023-02-12T13:25:38;102259.59;;;12.46;79.15
59435;BME280;45241;49.768;8.636;2023-02-12T13:28:13;102254.59;;;12.95;78.01
59435;BME280;45241;49.768;8.636;2023-02-12T13:30:46;102255.16;;;13.24;77.06
59435;BME280;45241;49.768;8.636;2023-02-12T13:33:22;102255.31;;;12.97;76.74
59435;BME280;45241;49.768;8.636;2023-02-12T13:35:52;102250.38;;;13.10;76.36
59435;BME280;45241;49.768;8.636;2023-02-12T13:38:27;102248.66;;;12.65;77.54
59435;BME280;45241;49.768;8.636;2023-02-12T13:40:58;102249.31;;;12.85;76.34
59435;BME280;45241;49.768;8.636;2023-02-12T13:43:38;102251.38;;;13.09;76.88
59435;BME280;45241;49.768;8.636;2023-02-12T13:54:24;102236.03;;;12.83;76.91
59435;BME280;45241;49.768;8.636;2023-02-12T13:56:59;102236.38;;;12.88;75.65
59435;BME280;45241;49.768;8.636;2023-02-12T14:02:00;102235.56;;;13.98;72.75
59435;BME280;45241;49.768;8.636;2023-02-12T14:04:34;102230.91;;;14.17;72.21
59435;BME280;45241;49.768;8.636;2023-02-12T14:07:07;102223.50;;;14.27;71.24
59435;BME280;45241;49.768;8.636;2023-02-12T14:09:41;102222.22;;;13.80;71.84
59435;BME280;45241;49.768;8.636;2023-02-12T14:12:27;102224.63;;;14.08;71.80
59435;BME280;45241;49.768;8.636;2023-02-12T14:15:05;102222.88;;;14.41;69.75
59435;BME280;45241;49.768;8.636;2023-02-12T14:20:30;102219.47;;;14.63;69.25
59435;BME280;45241;49.768;8.636;2023-02-12T14:23:24;102226.19;;;14.27;70.23
59435;BME280;45241;49.768;8.636;2023-02-12T14:26:06;102233.06;;;14.05;70.78
59435;BME280;45241;49.768;8.636;2023-02-12T14:33:44;102217.78;;;14.38;69.28
59435;BME280;45241;49.768;8.636;2023-02-12T14:36:19;102212.34;;;14.87;68.39
59435;BME280;45241;49.768;8.636;2023-02-12T14:41:44;102210.63;;;15.10;67.56
59435;BME280;45241;49.768;8.636;2023-02-12T14:49:27;102202.47;;;15.26;66.15
59435;BME280;45241;49.768;8.636;2023-02-12T14:52:00;102201.56;;;14.95;66.78
59435;BME280;45241;49.768;8.636;2023-02-12T14:54:42;102202.25;;;15.36;65.60
59435;BME280;45241;49.768;8.636;2023-02-12T14:57:11;102196.69;;;14.90;65.95
59435;BME280;45241;49.768;8.636;2023-02-12T14:59:44;102192.34;;;15.99;64.44
59435;BME280;45241;49.768;8.636;2023-02-12T15:02:22;102194.66;;;15.79;65.06